Time;durP1;ratioP1;P1;durP2;ratioP2;P2;SDS_P1;SDS_P2;PMS_P1;PMS_P2;Temp;Humidity;BMP_temperature;BMP_pressure;BME280_temperature;BME280_humidity;BME280_pressure;Samples;Min_cycle;Max_cycle;Signal;HPM_P1;HPM_P2
2021/10/25 00:01:54;;;;;;;5.00;3.43;;;3.30;99.90;;;;;;6125131;23;20021;-72
2021/10/25 00:04:20;;;;;;;3.73;3.43;;;3.40;99.90;;;;;;6123850;23;20460;-73
2021/10/25 00:06:47;;;;;;;6.70;3.97;;;3.30;99.90;;;;;;6124379;23;20516;-73
2021/10/25 00:09:14;;;;;;;5.13;3.70;;;3.20;99.90;;;;;;6124530;23;20073;-73
2021/10/25 00:11:41;;;;;;;5.10;4.17;;;3.30;99.90;;;;;;6124770;23;20018;-73
2021/10/25 00:14:10;;;;;;;8.67;4.33;;;3.30;99.90;;;;;;6124037;23;20528;-70
2021/10/25 00:16:37;;;;;;;4.30;3.90;;;3.40;99.90;;;;;;6124673;23;20053;-72
2021/10/25 00:19:04;;;;;;;11.63;4.10;;;3.50;99.90;;;;;;6124497;23;20101;-72
2021/10/25 00:21:31;;;;;;;7.07;3.30;;;3.50;99.90;;;;;;6124852;23;20057;-72
2021/10/25 00:23:58;;;;;;;4.23;3.37;;;3.50;99.90;;;;;;6124152;23;20028;-71
2021/10/25 00:26:24;;;;;;;8.03;4.17;;;3.40;99.90;;;;;;6124687;23;20029;-72
2021/10/25 00:28:51;;;;;;;3.60;3.27;;;3.30;99.90;;;;;;6124737;23;20314;-72
2021/10/25 00:31:19;;;;;;;6.93;3.73;;;3.20;99.90;;;;;;6124350;23;20022;-70
2021/10/25 00:33:45;;;;;;;7.87;3.90;;;3.10;99.90;;;;;;6124079;23;20018;-70
2021/10/25 00:36:12;;;;;;;4.60;3.67;;;3.00;99.90;;;;;;6124259;23;20326;-71
2021/10/25 00:38:39;;;;;;;5.73;3.83;;;2.90;99.90;;;;;;6124316;23;20022;-70
2021/10/25 00:41:07;;;;;;;5.83;3.23;;;2.80;99.90;;;;;;6124569;23;20021;-74
2021/10/25 00:43:33;;;;;;;5.23;4.03;;;2.70;99.90;;;;;;6124026;23;20022;-71
2021/10/25 00:46:00;;;;;;;7.23;4.50;;;2.50;99.90;;;;;;6124489;23;20022;-71
2021/10/25 00:48:28;;;;;;;8.07;3.97;;;2.60;99.90;;;;;;6125554;23;20409;-71
2021/10/25 00:50:55;;;;;;;7.97;4.10;;;2.90;99.90;;;;;;6126306;23;20017;-71
2021/10/25 00:53:22;;;;;;;5.97;3.73;;;3.10;99.90;;;;;;6125788;23;20022;-71
2021/10/25 00:55:49;;;;;;;3.10;2.80;;;3.10;99.90;;;;;;6126397;23;20022;-71
2021/10/25 00:58:16;;;;;;;6.77;3.03;;;3.10;99.90;;;;;;6126353;23;20053;-72
2021/10/25 01:00:42;;;;;;;10.77;3.90;;;3.20;99.90;;;;;;6126399;23;20022;-75
2021/10/25 01:03:09;;;;;;;8.67;3.30;;;3.20;99.90;;;;;;6125521;23;20026;-76
2021/10/25 01:05:37;;;;;;;7.97;3.83;;;3.20;99.90;;;;;;6126262;23;20073;-73
2021/10/25 01:08:04;;;;;;;8.60;3.83;;;3.20;99.90;;;;;;6126537;23;20022;-72
2021/10/25 01:10:31;;;;;;;6.87;3.23;;;3.00;99.90;;;;;;6125770;23;20057;-75
2021/10/25 01:12:58;;;;;;;5.47;4.33;;;2.90;99.90;;;;;;6126143;23;20021;-72
2021/10/25 01:15:26;;;;;;;5.93;3.70;;;2.80;99.90;;;;;;6125665;23;20021;-71
2021/10/25 01:17:54;;;;;;;6.63;4.40;;;3.00;99.90;;;;;;6126143;23;20021;-70
2021/10/25 01:20:22;;;;;;;6.80;4.53;;;2.90;99.90;;;;;;6125552;23;20109;-71
2021/10/25 01:22:49;;;;;;;5.77;3.90;;;2.80;99.90;;;;;;6126229;23;20076;-72
2021/10/25 01:25:15;;;;;;;4.97;3.17;;;2.70;99.90;;;;;;6125406;23;20022;-73
2021/10/25 01:27:42;;;;;;;7.70;4.27;;;2.70;99.90;;;;;;6126115;23;20018;-77
2021/10/25 01:30:09;;;;;;;5.13;3.33;;;2.60;99.90;;;;;;6126067;23;20389;-73
2021/10/25 01:32:36;;;;;;;14.17;4.03;;;2.60;99.90;;;;;;6126203;23;20018;-73
2021/10/25 01:35:03;;;;;;;3.87;3.47;;;2.60;99.90;;;;;;6125877;23;20026;-77
2021/10/25 01:37:31;;;;;;;5.63;3.43;;;2.50;99.90;;;;;;6126149;23;20022;-72
2021/10/25 01:39:58;;;;;;;3.83;3.17;;;2.50;99.90;;;;;;6125792;23;20030;-70
2021/10/25 01:42:24;;;;;;;6.47;4.93;;;2.50;99.90;;;;;;6125812;23;20022;-71
2021/10/25 01:44:51;;;;;;;4.57;3.07;;;2.40;99.90;;;;;;6125292;23;20045;-75
2021/10/25 01:47:18;;;;;;;11.27;4.83;;;2.50;99.90;;;;;;6126044;23;20018;-71
2021/10/25 01:49:45;;;;;;;6.10;3.63;;;2.50;99.90;;;;;;6125930;23;20022;-71
2021/10/25 01:52:13;;;;;;;7.37;4.60;;;2.40;99.90;;;;;;6125738;23;20022;-71
2021/10/25 01:54:41;;;;;;;7.40;3.93;;;2.30;99.90;;;;;;6124724;23;20507;-71
2021/10/25 01:57:08;;;;;;;6.33;3.80;;;2.30;99.90;;;;;;6123510;23;20021;-71
2021/10/25 01:59:35;;;;;;;4.50;4.03;;;2.30;99.90;;;;;;6125059;23;20026;-72
2021/10/25 02:02:02;;;;;;;6.63;4.17;;;2.30;99.90;;;;;;6125705;23;20022;-71
2021/10/25 02:04:30;;;;;;;5.27;4.67;;;2.20;99.90;;;;;;6124610;23;20065;-71
2021/10/25 02:06:57;;;;;;;5.33;3.23;;;2.20;99.90;;;;;;6125681;23;20026;-70
2021/10/25 02:09:24;;;;;;;6.47;3.33;;;2.00;99.90;;;;;;6125173;23;20093;-74
2021/10/25 02:11:52;;;;;;;4.83;3.60;;;2.00;99.90;;;;;;6125776;23;20457;-71
2021/10/25 02:14:19;;;;;;;5.00;3.20;;;1.90;99.90;;;;;;6124429;23;20018;-72
2021/10/25 02:16:45;;;;;;;4.87;4.47;;;1.80;99.90;;;;;;6125463;23;20123;-72
2021/10/25 02:19:13;;;;;;;7.43;4.10;;;1.70;99.90;;;;;;6125382;23;20025;-74
2021/10/25 02:21:41;;;;;;;4.30;3.53;;;1.60;99.90;;;;;;6125593;23;20025;-71
2021/10/25 02:24:08;;;;;;;5.13;3.30;;;1.60;99.90;;;;;;6125011;23;20022;-71
2021/10/25 02:26:35;;;;;;;4.33;3.93;;;1.60;99.90;;;;;;6125600;23;20048;-71
2021/10/25 02:29:04;;;;;;;4.47;3.83;;;1.60;99.90;;;;;;6125489;23;20022;-71
2021/10/25 02:31:31;;;;;;;12.37;4.53;;;1.60;99.90;;;;;;6125458;23;20293;-71
2021/10/25 02:33:57;;;;;;;5.23;3.40;;;1.50;99.90;;;;;;6124930;23;20100;-70
2021/10/25 02:36:24;;;;;;;4.67;4.27;;;1.50;99.90;;;;;;6125312;23;20089;-70
2021/10/25 02:38:50;;;;;;;7.37;5.73;;;1.60;99.90;;;;;;6125057;23;20532;-71
2021/10/25 02:41:17;;;;;;;6.27;3.77;;;1.60;99.90;;;;;;6125116;23;20025;-72
2021/10/25 02:43:44;;;;;;;8.37;3.57;;;1.50;99.90;;;;;;6124702;23;20022;-71
2021/10/25 02:46:13;;;;;;;4.40;3.40;;;1.50;99.90;;;;;;6125212;23;20093;-71
2021/10/25 02:48:40;;;;;;;3.27;2.80;;;1.50;99.90;;;;;;6124834;23;20464;-74
2021/10/25 02:51:07;;;;;;;11.33;3.87;;;1.40;99.90;;;;;;6125291;23;20018;-72
2021/10/25 02:53:34;;;;;;;4.87;3.77;;;1.40;99.90;;;;;;6124824;23;20101;-73
2021/10/25 02:56:01;;;;;;;6.93;4.30;;;1.30;99.90;;;;;;6125672;23;20069;-73
2021/10/25 02:58:27;;;;;;;6.83;4.87;;;1.40;99.90;;;;;;6125094;23;20018;-77
2021/10/25 03:00:54;;;;;;;5.77;4.43;;;1.40;99.90;;;;;;6125209;23;20397;-74
2021/10/25 03:03:23;;;;;;;3.33;2.70;;;1.40;99.90;;;;;;6125015;23;20017;-71
2021/10/25 03:05:50;;;;;;;5.13;3.33;;;1.30;99.90;;;;;;6125183;23;20026;-72
2021/10/25 03:08:16;;;;;;;5.07;3.80;;;1.20;99.90;;;;;;6124822;23;20080;-72
2021/10/25 03:10:44;;;;;;;10.23;3.90;;;1.20;99.90;;;;;;6124899;23;20026;-71
2021/10/25 03:13:11;;;;;;;4.83;3.10;;;1.20;99.90;;;;;;6124528;23;20388;-72
2021/10/25 03:15:39;;;;;;;5.53;4.07;;;1.10;99.90;;;;;;6124953;23;20021;-72
2021/10/25 03:18:05;;;;;;;8.60;3.83;;;1.00;99.90;;;;;;6125136;23;20076;-72
2021/10/25 03:20:33;;;;;;;7.73;3.43;;;1.00;99.90;;;;;;6124667;23;20384;-72
2021/10/25 03:23:00;;;;;;;3.87;3.40;;;1.10;99.90;;;;;;6124987;23;20392;-72
2021/10/25 03:25:27;;;;;;;3.03;2.80;;;1.20;99.90;;;;;;6124409;23;20021;-72
2021/10/25 03:27:54;;;;;;;4.10;3.30;;;1.10;99.90;;;;;;6125040;23;20069;-71
2021/10/25 03:30:20;;;;;;;7.00;3.57;;;1.10;99.90;;;;;;6124867;23;20348;-70
2021/10/25 03:32:47;;;;;;;4.73;2.90;;;1.10;99.90;;;;;;6124989;23;20018;-72
2021/10/25 03:35:14;;;;;;;10.30;5.40;;;1.00;99.90;;;;;;6124330;23;20053;-71
2021/10/25 03:37:42;;;;;;;4.03;3.70;;;1.00;99.90;;;;;;6124821;23;20022;-72
2021/10/25 03:40:10;;;;;;;4.00;3.53;;;1.00;99.90;;;;;;6124820;23;20104;-70
2021/10/25 03:42:41;;;;;;;3.10;2.83;;;1.00;99.90;;;;;;6124656;23;20053;-71
2021/10/25 03:45:13;;;;;;;6.35;4.38;;;1.20;99.90;;;;;;6124437;23;20024;-70
2021/10/25 03:47:44;;;;;;;5.37;4.07;;;1.20;99.90;;;;;;6124684;23;20022;-72
2021/10/25 03:50:13;;;;;;;4.68;2.83;;;1.20;99.90;;;;;;6124903;23;20022;-73
2021/10/25 03:52:47;;;;;;;4.10;3.77;;;1.20;99.90;;;;;;6124336;23;20330;-72
2021/10/25 03:55:18;;;;;;;4.90;4.13;;;1.10;99.90;;;;;;6124832;23;20021;-75
2021/10/25 04:25:37;;;;;;;3.90;3.57;;;1.10;99.90;;;;;;6125846;23;20416;-72
2021/10/25 04:28:07;;;;;;;6.43;3.87;;;1.30;99.90;;;;;;6127829;23;20029;-75
2021/10/25 04:30:35;;;;;;;4.90;4.13;;;1.30;99.90;;;;;;6127894;23;20030;-72
2021/10/25 04:33:02;;;;;;;7.47;3.77;;;1.50;99.90;;;;;;6126183;23;20484;-71
2021/10/25 04:35:29;;;;;;;6.53;3.60;;;1.70;99.90;;;;;;6126434;23;20025;-71
2021/10/25 04:37:56;;;;;;;10.03;3.80;;;1.70;99.90;;;;;;6125961;23;20014;-73
2021/10/25 04:40:25;;;;;;;7.80;4.97;;;1.60;99.90;;;;;;6126355;23;20025;-70
2021/10/25 04:42:52;;;;;;;5.57;4.33;;;1.60;99.90;;;;;;6126244;23;20290;-74
2021/10/25 04:45:19;;;;;;;6.13;4.73;;;1.50;99.90;;;;;;6125962;23;20017;-73
2021/10/25 04:47:46;;;;;;;7.23;4.57;;;1.50;99.90;;;;;;6126791;23;20018;-73
2021/10/25 04:50:14;;;;;;;6.80;4.40;;;1.70;99.90;;;;;;6126614;23;20028;-76
2021/10/25 04:52:40;;;;;;;4.53;3.90;;;1.60;99.90;;;;;;6126709;23;20029;-73
2021/10/25 04:55:07;;;;;;;8.27;3.50;;;1.60;99.90;;;;;;6126871;23;20088;-74
2021/10/25 04:57:35;;;;;;;5.37;4.03;;;1.60;99.90;;;;;;6128215;23;20092;-74
2021/10/25 05:00:02;;;;;;;5.13;3.67;;;1.50;99.90;;;;;;6126574;23;20384;-73
2021/10/25 05:02:29;;;;;;;8.30;5.07;;;1.30;99.90;;;;;;6126304;23;20512;-71
2021/10/25 05:04:56;;;;;;;6.17;4.37;;;1.30;99.90;;;;;;6125731;23;20022;-73
2021/10/25 05:07:23;;;;;;;7.63;4.90;;;1.60;99.90;;;;;;6126174;23;20081;-70
2021/10/25 05:09:49;;;;;;;4.90;3.67;;;1.70;99.90;;;;;;6125858;23;20022;-73
2021/10/25 05:12:16;;;;;;;6.13;3.37;;;1.60;99.90;;;;;;6126101;23;20021;-71
2021/10/25 05:14:44;;;;;;;5.03;4.20;;;1.70;99.90;;;;;;6126392;23;20053;-72
2021/10/25 05:17:11;;;;;;;5.87;4.53;;;1.60;99.90;;;;;;6126084;23;20053;-75
2021/10/25 05:19:38;;;;;;;4.37;3.93;;;1.40;99.90;;;;;;6126142;23;20022;-75
2021/10/25 05:22:05;;;;;;;8.07;3.63;;;1.50;99.90;;;;;;6126068;23;20057;-73
2021/10/25 05:24:32;;;;;;;10.20;5.80;;;1.60;99.90;;;;;;6125003;23;20014;-71
2021/10/25 05:26:58;;;;;;;12.53;5.37;;;1.60;99.90;;;;;;6126125;23;20030;-72
2021/10/25 05:29:25;;;;;;;5.70;3.37;;;1.60;99.90;;;;;;6126089;23;20025;-71
2021/10/25 05:31:53;;;;;;;5.80;4.27;;;1.50;99.90;;;;;;6126040;23;20022;-72
2021/10/25 05:34:20;;;;;;;6.33;3.97;;;1.40;99.90;;;;;;6124730;23;20022;-74
2021/10/25 05:36:46;;;;;;;7.87;4.37;;;1.40;99.90;;;;;;6125738;23;20018;-74
2021/10/25 05:39:13;;;;;;;7.30;4.80;;;1.30;99.90;;;;;;6125486;23;20536;-72
2021/10/25 05:41:40;;;;;;;5.03;4.03;;;1.30;99.90;;;;;;6125878;23;20022;-72
2021/10/25 05:44:07;;;;;;;3.37;3.07;;;1.20;99.90;;;;;;6125212;23;20029;-73
2021/10/25 05:46:33;;;;;;;10.03;4.67;;;1.20;99.90;;;;;;6125844;23;20018;-73
2021/10/25 05:49:01;;;;;;;6.30;4.87;;;1.40;99.90;;;;;;6125588;23;20025;-75
2021/10/25 05:51:29;;;;;;;7.63;3.53;;;1.30;99.90;;;;;;6125395;23;20483;-75
2021/10/25 05:53:57;;;;;;;6.57;4.03;;;1.20;99.90;;;;;;6125056;23;20045;-73
2021/10/25 05:56:24;;;;;;;7.47;5.73;;;1.10;99.90;;;;;;6125633;23;20028;-73
2021/10/25 05:58:52;;;;;;;8.80;6.73;;;1.00;99.90;;;;;;6125499;23;20022;-71
2021/10/25 06:01:21;;;;;;;16.10;7.90;;;0.90;99.90;;;;;;6125496;23;20029;-73
2021/10/25 06:03:49;;;;;;;9.80;5.73;;;1.00;99.90;;;;;;6125032;23;20104;-73
2021/10/25 06:06:17;;;;;;;6.40;5.23;;;1.10;99.90;;;;;;6125530;23;20022;-73
2021/10/25 06:08:44;;;;;;;7.90;5.10;;;1.20;99.90;;;;;;6125362;23;20022;-70
2021/10/25 06:11:10;;;;;;;8.20;4.93;;;1.50;99.90;;;;;;6125608;23;20021;-71
2021/10/25 06:13:39;;;;;;;7.47;6.40;;;1.70;99.90;;;;;;6125028;23;20022;-70
2021/10/25 06:16:11;;;;;;;12.30;5.30;;;2.10;99.90;;;;;;6125149;23;20587;-70
2021/10/25 06:18:38;;;;;;;5.87;4.60;;;2.60;99.90;;;;;;6125348;23;20036;-72
2021/10/25 06:21:05;;;;;;;6.93;4.20;;;3.00;99.90;;;;;;6125884;23;20389;-68
2021/10/25 06:23:34;;;;;;;5.63;3.70;;;3.30;99.90;;;;;;6125368;23;20052;-73
2021/10/25 06:26:01;;;;;;;6.07;3.87;;;3.40;99.90;;;;;;6125073;23;20085;-70
2021/10/25 06:28:28;;;;;;;4.70;3.53;;;3.50;99.90;;;;;;6125278;23;20018;-72
2021/10/25 06:30:59;;;;;;;4.57;3.50;;;3.60;99.90;;;;;;6125136;23;20393;-72
2021/10/25 06:33:26;;;;;;;6.13;4.45;;;3.90;99.90;;;;;;6124859;23;20113;-73
2021/10/25 06:36:02;;;;;;;7.27;3.50;;;4.20;99.90;;;;;;6125406;23;20026;-75
2021/10/25 06:38:32;;;;;;;11.57;4.03;;;4.50;99.90;;;;;;6125211;23;20029;-73
2021/10/25 06:41:00;;;;;;;9.40;4.73;;;4.80;99.90;;;;;;6125441;23;20069;-70
2021/10/25 06:43:28;;;;;;;3.43;3.13;;;5.10;99.90;;;;;;6125616;23;20026;-76
2021/10/25 06:45:55;;;;;;;3.97;3.37;;;5.40;99.90;;;;;;6125076;23;20524;-79
2021/10/25 06:48:22;;;;;;;3.90;3.50;;;5.60;99.90;;;;;;6126464;23;20028;-72
2021/10/25 06:50:49;;;;;;;8.13;4.07;;;5.90;99.90;;;;;;6126015;23;20170;-76
2021/10/25 06:53:17;;;;;;;9.20;3.50;;;6.30;99.90;;;;;;6124152;23;20068;-74
2021/10/25 06:55:45;;;;;;;4.73;3.43;;;6.60;99.90;;;;;;6124714;23;20035;-73
2021/10/25 06:58:13;;;;;;;5.93;4.13;;;7.00;99.90;;;;;;6125493;23;20026;-72
2021/10/25 07:00:39;;;;;;;3.80;3.47;;;7.20;99.90;;;;;;6124992;23;20385;-70
2021/10/25 07:03:07;;;;;;;9.63;4.53;;;7.40;99.90;;;;;;6125315;23;20095;-71
2021/10/25 07:05:35;;;;;;;5.40;3.53;;;7.70;99.90;;;;;;6125177;23;20298;-72
2021/10/25 07:08:02;;;;;;;8.35;4.15;;;7.80;99.90;;;;;;6125080;23;20505;-70
2021/10/25 07:10:29;;;;;;;7.07;4.43;;;8.30;99.90;;;;;;6124417;23;20024;-70
2021/10/25 07:12:56;;;;;;;7.47;3.80;;;8.60;99.90;;;;;;6124500;23;20486;-71
2021/10/25 07:15:25;;;;;;;6.53;3.55;;;8.90;99.90;;;;;;6124423;23;20069;-72
2021/10/25 07:17:56;;;;;;;3.97;3.28;;;9.30;99.90;;;;;;6125203;23;20021;-72
2021/10/25 07:20:38;;;;;;;5.43;3.15;;;9.30;99.90;;;;;;6125125;23;20025;-71
2021/10/25 07:23:40;;;;;;;4.20;3.13;;;9.50;99.90;;;;;;6124200;23;20465;-77
2021/10/25 08:05:03;;;;;;;5.95;3.83;;;12.20;99.90;;;;;;6056940;23;20030;-70
2021/10/25 08:07:36;;;;;;;3.45;2.90;;;12.40;99.90;;;;;;6126734;23;20018;-72
2021/10/25 08:10:08;;;;;;;3.90;3.30;;;12.40;99.90;;;;;;6126442;23;20022;-71
2021/10/25 08:12:36;;;;;;;4.10;3.35;;;12.40;99.90;;;;;;6126666;23;20024;-68
2021/10/25 08:15:06;;;;;;;4.47;3.47;;;12.70;98.40;;;;;;6125896;23;20029;-70
2021/10/25 08:17:43;;;;;;;7.45;4.18;;;12.70;98.60;;;;;;6126716;23;20010;-71
2021/10/25 08:20:12;;;;;;;3.95;3.35;;;12.80;97.70;;;;;;6126043;23;20018;-71
2021/10/25 08:22:41;;;;;;;6.90;3.60;;;12.20;98.50;;;;;;6126579;23;20452;-73
2021/10/25 08:25:08;;;;;;;4.72;4.22;;;12.10;99.60;;;;;;6125732;23;20464;-73
2021/10/25 08:27:35;;;;;;;6.22;3.72;;;12.60;98.90;;;;;;6126593;23;20081;-75
2021/10/25 08:30:03;;;;;;;6.57;3.55;;;12.90;97.40;;;;;;6126230;23;20472;-74
2021/10/25 08:32:43;;;;;;;6.97;3.67;;;12.90;97.10;;;;;;6126511;23;20025;-71
2021/10/25 08:35:25;;;;;;;6.78;3.75;;;12.60;97.80;;;;;;6125724;23;20025;-67
2021/10/25 08:40:50;;;;;;;5.68;3.78;;;12.10;97.80;;;;;;6008023;23;20024;-71
2021/10/25 08:43:17;;;;;;;4.63;4.10;;;11.90;99.00;;;;;;6098678;23;20026;-71
2021/10/25 08:45:47;;;;;;;4.82;3.70;;;11.70;99.80;;;;;;6126341;23;20460;-74
2021/10/25 08:48:13;;;;;;;5.65;3.55;;;11.90;99.90;;;;;;6126531;23;20345;-73
2021/10/25 08:50:41;;;;;;;4.50;3.92;;;12.00;99.80;;;;;;6126591;23;20069;-72
2021/10/25 08:53:09;;;;;;;4.75;3.05;;;12.00;99.60;;;;;;6125478;23;20527;-72
2021/10/25 08:55:36;;;;;;;5.85;3.35;;;11.80;99.90;;;;;;6126245;23;20360;-74
2021/10/25 08:58:05;;;;;;;5.53;3.38;;;11.70;99.90;;;;;;6127022;23;20341;-72
2021/10/25 09:00:41;;;;;;;4.43;3.55;;;11.70;99.90;;;;;;6126498;23;20029;-72
2021/10/25 09:03:08;;;;;;;8.10;4.15;;;11.70;99.90;;;;;;6125499;23;20029;-69
2021/10/25 09:05:36;;;;;;;5.53;3.72;;;11.70;99.90;;;;;;6126302;23;20022;-74
2021/10/25 09:08:06;;;;;;;10.65;3.53;;;12.50;99.90;;;;;;6125963;23;20479;-73
2021/10/25 09:10:36;;;;;;;6.03;3.50;;;13.20;98.00;;;;;;6126183;23;20022;-71
2021/10/25 09:13:06;;;;;;;5.22;3.33;;;13.00;97.80;;;;;;6126107;23;20026;-69
2021/10/25 09:15:37;;;;;;;4.28;3.17;;;12.70;97.40;;;;;;6125618;23;20018;-70
2021/10/25 09:18:08;;;;;;;5.88;3.42;;;13.20;97.20;;;;;;6126039;23;20056;-69
2021/10/25 09:20:42;;;;;;;5.03;2.88;;;13.90;95.90;;;;;;6125988;23;20096;-69
2021/10/25 09:23:12;;;;;;;7.05;3.72;;;13.60;95.40;;;;;;6125372;23;20401;-70
2021/10/25 09:25:39;;;;;;;5.38;3.35;;;13.80;94.20;;;;;;6126098;23;20026;-70
2021/10/25 09:28:14;;;;;;;5.13;3.78;;;13.90;94.10;;;;;;6125941;23;20021;-70
2021/10/25 09:30:46;;;;;;;6.05;3.92;;;14.90;92.90;;;;;;6125885;23;20098;-69
2021/10/25 09:33:19;;;;;;;4.85;3.45;;;15.40;91.40;;;;;;6125342;23;20392;-69
2021/10/25 09:35:48;;;;;;;5.47;3.50;;;15.30;89.70;;;;;;6125873;23;20388;-71
2021/10/25 09:38:23;;;;;;;6.13;3.58;;;14.80;88.40;;;;;;6125793;23;20029;-71
2021/10/25 09:41:16;;;;;;;4.45;3.50;;;15.60;88.10;;;;;;6125880;23;20044;-72
2021/10/25 09:46:37;;;;;;;4.95;3.88;;;15.60;86.50;;;;;;6125612;23;20088;-72
2021/10/25 09:49:08;;;;;;;5.85;3.75;;;15.70;86.30;;;;;;6125736;23;20473;-74
2021/10/25 09:51:37;;;;;;;5.05;4.20;;;16.00;84.40;;;;;;6126362;23;20072;-72
2021/10/25 09:54:05;;;;;;;4.20;3.70;;;16.50;82.70;;;;;;6125048;23;20022;-74
2021/10/25 09:56:34;;;;;;;7.45;3.95;;;17.00;79.80;;;;;;6126011;23;20076;-74
2021/10/25 09:59:10;;;;;;;5.20;3.55;;;15.60;81.40;;;;;;6125416;23;20025;-73
2021/10/25 10:01:38;;;;;;;7.53;3.67;;;14.40;86.00;;;;;;6125993;23;20029;-72
2021/10/25 10:04:06;;;;;;;5.30;3.13;;;14.10;89.80;;;;;;6125293;23;20033;-72
2021/10/25 10:06:33;;;;;;;5.00;3.78;;;14.00;90.70;;;;;;6125663;23;20356;-72
2021/10/25 10:09:00;;;;;;;5.22;3.40;;;14.70;90.10;;;;;;6125160;23;20337;-69
2021/10/25 10:11:29;;;;;;;5.00;3.58;;;15.00;89.30;;;;;;6125640;23;20045;-68
2021/10/25 10:13:57;;;;;;;4.20;2.95;;;14.30;90.00;;;;;;6125088;23;20022;-70
2021/10/25 10:16:24;;;;;;;5.43;4.03;;;15.00;90.20;;;;;;6125548;23;20101;-68
2021/10/25 10:18:55;;;;;;;4.35;3.95;;;15.40;87.20;;;;;;6125128;23;20022;-69
2021/10/25 10:21:22;;;;;;;6.22;3.65;;;16.00;84.40;;;;;;6125256;23;20077;-67
2021/10/25 10:23:53;;;;;;;4.97;2.83;;;16.00;84.30;;;;;;6124825;23;20060;-69
2021/10/25 10:26:20;;;;;;;5.38;3.30;;;16.40;82.10;;;;;;6124897;23;20457;-69
2021/10/25 10:28:50;;;;;;;9.52;3.63;;;17.60;79.40;;;;;;6125291;23;20023;-69
2021/10/25 10:31:20;;;;;;;6.60;3.40;;;18.20;75.20;;;;;;6125635;23;20077;-70
2021/10/25 10:33:50;;;;;;;4.03;3.63;;;17.40;74.70;;;;;;6124830;23;20022;-68
2021/10/25 10:36:21;;;;;;;6.55;3.88;;;17.00;76.30;;;;;;6125261;23;20018;-70
2021/10/25 10:38:51;;;;;;;7.40;3.83;;;17.50;77.50;;;;;;6125310;23;20024;-69
2021/10/25 10:41:20;;;;;;;5.25;3.90;;;17.70;74.60;;;;;;6125079;23;20022;-69
2021/10/25 10:44:03;;;;;;;5.43;3.30;;;16.70;74.60;;;;;;6124843;23;20105;-70
2021/10/25 10:46:42;;;;;;;4.22;3.10;;;15.80;78.00;;;;;;6125170;23;20022;-69
2021/10/25 10:49:23;;;;;;;6.88;3.92;;;14.90;82.70;;;;;;6124718;23;20540;-69
2021/10/25 10:52:20;;;;;;;4.35;3.35;;;14.50;86.30;;;;;;6124783;23;20365;-68
2021/10/25 10:54:58;;;;;;;7.55;3.50;;;14.30;89.10;;;;;;6125025;23;20021;-69
2021/10/25 10:57:43;;;;;;;6.03;3.72;;;14.10;90.10;;;;;;6124738;23;20461;-69
2021/10/25 11:00:20;;;;;;;6.18;3.72;;;14.00;90.10;;;;;;6124600;23;20329;-70
2021/10/25 11:02:51;;;;;;;6.60;3.25;;;14.10;91.10;;;;;;6124940;23;20341;-69
2021/10/25 11:05:29;;;;;;;9.55;3.97;;;13.40;91.60;;;;;;6124525;23;20028;-71
2021/10/25 11:08:04;;;;;;;4.85;4.00;;;13.20;92.90;;;;;;6128669;23;20085;-70
2021/10/25 11:10:32;;;;;;;7.80;3.45;;;13.00;93.60;;;;;;6122680;23;20018;-72
2021/10/25 11:13:08;;;;;;;5.78;3.45;;;13.10;95.20;;;;;;6154409;23;20025;-71
2021/10/25 11:15:37;;;;;;;6.40;3.65;;;13.50;94.40;;;;;;6154547;23;20021;-72
2021/10/25 11:18:05;;;;;;;3.88;3.42;;;13.50;93.80;;;;;;6154536;23;20100;-70
2021/10/25 11:20:32;;;;;;;4.97;3.50;;;13.90;93.80;;;;;;6154317;23;20021;-71
2021/10/25 11:23:03;;;;;;;5.43;3.70;;;14.20;92.80;;;;;;6154293;23;20026;-72
2021/10/25 11:25:38;;;;;;;4.05;3.30;;;15.10;92.40;;;;;;6153938;23;20022;-71
2021/10/25 11:28:13;;;;;;;4.28;3.03;;;15.20;90.70;;;;;;6154723;23;20022;-74
2021/10/25 11:30:41;;;;;;;6.47;3.47;;;16.00;89.60;;;;;;6154464;23;20026;-72
2021/10/25 11:33:08;;;;;;;4.22;3.03;;;15.60;87.90;;;;;;6153525;23;20456;-76
2021/10/25 11:35:34;;;;;;;8.80;3.85;;;14.60;90.00;;;;;;6154358;23;20021;-73
2021/10/25 11:38:03;;;;;;;7.70;3.00;;;14.10;91.10;;;;;;6154424;23;20021;-73
2021/10/25 11:40:29;;;;;;;4.45;3.20;;;13.70;92.50;;;;;;6154026;23;20022;-72
2021/10/25 11:43:01;;;;;;;6.15;3.33;;;13.60;93.40;;;;;;6154218;23;20022;-68
2021/10/25 11:45:27;;;;;;;9.00;3.67;;;13.70;93.80;;;;;;6153894;23;20052;-69
2021/10/25 11:47:56;;;;;;;4.00;2.92;;;13.50;94.40;;;;;;6154326;23;20334;-70
2021/10/25 11:50:25;;;;;;;5.68;3.30;;;13.70;94.30;;;;;;6154306;23;20076;-71
2021/10/25 11:52:56;;;;;;;4.60;3.28;;;13.60;94.90;;;;;;6155004;23;20034;-68
2021/10/25 11:55:25;;;;;;;6.00;3.05;;;13.90;95.00;;;;;;6153327;23;20388;-71
2021/10/25 11:57:54;;;;;;;4.63;3.88;;;14.50;93.80;;;;;;6154384;23;20017;-70
2021/10/25 12:00:23;;;;;;;4.68;3.35;;;15.00;92.70;;;;;;6153772;23;20491;-72
2021/10/25 12:02:49;;;;;;;6.00;3.70;;;15.00;91.80;;;;;;6154317;23;20117;-71
2021/10/25 12:05:23;;;;;;;4.43;3.22;;;15.40;91.20;;;;;;6153730;23;20068;-71
2021/10/25 12:07:51;;;;;;;5.43;3.53;;;14.80;91.20;;;;;;6154536;23;20022;-73
2021/10/25 12:10:20;;;;;;;4.80;3.05;;;14.60;92.00;;;;;;6153791;23;20464;-73
2021/10/25 12:12:50;;;;;;;5.25;3.45;;;14.50;92.60;;;;;;6154930;23;20100;-77
2021/10/25 12:15:19;;;;;;;5.38;3.55;;;14.50;92.30;;;;;;6154301;23;20018;-75
2021/10/25 12:17:46;;;;;;;3.63;2.83;;;14.60;92.80;;;;;;6154464;23;20018;-75
2021/10/25 12:20:21;;;;;;;3.85;3.25;;;14.50;92.90;;;;;;6154312;23;20018;-75
2021/10/25 12:22:58;;;;;;;4.88;3.28;;;14.40;93.80;;;;;;6153992;23;20413;-70
2021/10/25 12:25:24;;;;;;;6.50;4.38;;;14.80;92.60;;;;;;6153595;23;20021;-71
2021/10/25 12:27:55;;;;;;;7.13;2.80;;;15.00;92.60;;;;;;6154124;23;20021;-69
2021/10/25 12:30:22;;;;;;;4.30;3.13;;;14.90;92.20;;;;;;6154091;23;20100;-69
2021/10/25 12:32:54;;;;;;;6.30;4.93;;;14.80;92.20;;;;;;6154155;23;20022;-69
2021/10/25 12:35:34;;;;;;;10.65;6.47;;;14.60;93.10;;;;;;6153694;23;20028;-69
2021/10/25 12:38:03;;;;;;;4.60;3.33;;;14.50;93.00;;;;;;6154321;23;20017;-70
2021/10/25 12:40:38;;;;;;;5.70;3.13;;;14.10;94.00;;;;;;6154222;23;20025;-71
2021/10/25 12:43:05;;;;;;;7.85;3.67;;;14.10;94.70;;;;;;6154262;23;20048;-70
2021/10/25 12:45:38;;;;;;;7.43;3.75;;;14.20;94.50;;;;;;6155712;23;20021;-71
2021/10/25 12:48:05;;;;;;;9.40;4.05;;;13.70;95.30;;;;;;6156096;23;20021;-72
2021/10/25 12:50:33;;;;;;;4.95;4.03;;;13.60;95.80;;;;;;6155840;23;20021;-76
2021/10/25 12:53:07;;;;;;;9.55;4.45;;;13.60;96.20;;;;;;6155720;23;20080;-71
2021/10/25 12:55:34;;;;;;;4.57;4.05;;;13.30;97.90;;;;;;6155287;23;20025;-74
2021/10/25 12:58:01;;;;;;;11.18;7.20;;;13.20;97.80;;;;;;6155775;23;20018;-73
2021/10/25 13:00:28;;;;;;;5.65;3.30;;;13.30;98.70;;;;;;6155687;23;20056;-75
2021/10/25 13:02:56;;;;;;;4.43;3.83;;;13.20;98.80;;;;;;6155630;23;20021;-72
2021/10/25 13:05:25;;;;;;;5.07;3.38;;;13.20;99.20;;;;;;6155143;23;20076;-72
2021/10/25 13:07:53;;;;;;;4.80;2.95;;;13.40;98.70;;;;;;6155620;23;20096;-73
2021/10/25 13:10:25;;;;;;;5.72;3.35;;;13.20;99.30;;;;;;6155302;23;20025;-74
2021/10/25 13:12:55;;;;;;;5.45;3.55;;;13.30;99.10;;;;;;6155847;23;20068;-73
2021/10/25 13:15:24;;;;;;;3.67;3.08;;;13.50;98.80;;;;;;6155125;23;20068;-71
2021/10/25 13:17:51;;;;;;;7.70;3.97;;;13.30;99.00;;;;;;6155556;23;20021;-70
2021/10/25 13:20:20;;;;;;;4.55;3.38;;;13.40;98.80;;;;;;6155351;23;20091;-71
2021/10/25 13:22:48;;;;;;;5.90;3.90;;;13.30;99.00;;;;;;6155460;23;20032;-70
2021/10/25 13:25:14;;;;;;;5.28;3.63;;;13.30;99.20;;;;;;6154968;23;20025;-71
2021/10/25 13:27:44;;;;;;;4.22;3.42;;;13.20;99.50;;;;;;6155181;23;20518;-74
2021/10/25 13:30:12;;;;;;;4.38;3.42;;;13.20;99.90;;;;;;6155391;23;20026;-72
2021/10/25 13:32:39;;;;;;;7.38;3.50;;;13.20;99.90;;;;;;6155126;23;20468;-73
2021/10/25 13:35:07;;;;;;;4.47;3.35;;;13.20;99.90;;;;;;6154804;23;20017;-74
2021/10/25 13:37:33;;;;;;;3.50;3.08;;;13.00;99.90;;;;;;6155053;23;20460;-72
2021/10/25 13:40:00;;;;;;;5.35;3.47;;;13.00;99.90;;;;;;6154944;23;20026;-74
2021/10/25 13:42:27;;;;;;;3.90;3.45;;;13.00;99.90;;;;;;6155273;23;20068;-73
2021/10/25 13:44:55;;;;;;;4.85;3.55;;;13.00;99.90;;;;;;6154678;23;20022;-71
2021/10/25 13:47:21;;;;;;;3.78;3.17;;;13.10;99.90;;;;;;6154922;23;20448;-71
2021/10/25 13:49:49;;;;;;;5.50;3.63;;;13.10;99.90;;;;;;6155112;23;20022;-71
2021/10/25 13:52:15;;;;;;;3.25;2.88;;;13.10;99.90;;;;;;6154963;23;20017;-72
2021/10/25 13:54:42;;;;;;;6.65;3.17;;;13.10;99.90;;;;;;6153962;23;20068;-70
2021/10/25 13:57:09;;;;;;;6.78;3.33;;;13.10;99.90;;;;;;6154719;23;20483;-71
2021/10/25 13:59:37;;;;;;;6.80;3.25;;;12.90;99.90;;;;;;6155033;23;20018;-71
2021/10/25 14:02:08;;;;;;;3.97;3.30;;;12.80;99.90;;;;;;6154970;23;20017;-71
2021/10/25 14:04:39;;;;;;;6.20;3.60;;;12.60;99.90;;;;;;6154431;23;20022;-71
2021/10/25 14:07:09;;;;;;;21.15;11.55;;;12.60;99.90;;;;;;6155111;23;20084;-71
2021/10/25 14:09:36;;;;;;;10.65;6.25;;;12.70;99.90;;;;;;6154626;23;20072;-71
2021/10/25 14:12:03;;;;;;;7.10;4.00;;;12.60;99.90;;;;;;6155157;23;20025;-74